Time;durP1;ratioP1;P1;durP2;ratioP2;P2;SDS_P1;SDS_P2;PMS_P1;PMS_P2;Temp;Humidity;BMP_temperature;BMP_pressure;BME280_temperature;BME280_humidity;BME280_pressure;Samples;Min_cycle;Max_cycle;Signal;HPM_P1;HPM_P2
2023/07/30 00:01:33;;;;;;;9.90;4.65;;;15.30;99.90;;;;;;4996183;28;20105;-76
2023/07/30 00:03:59;;;;;;;9.77;4.35;;;15.30;99.90;;;;;;4993305;28;20059;-76
2023/07/30 00:06:25;;;;;;;13.18;5.22;;;15.30;99.90;;;;;;5008439;28;20108;-76
2023/07/30 00:08:51;;;;;;;14.10;4.32;;;15.30;99.90;;;;;;4975350;28;20411;-76
2023/07/30 00:11:16;;;;;;;11.82;5.38;;;15.30;99.90;;;;;;4984233;28;20119;-76
2023/07/30 00:13:42;;;;;;;11.13;4.75;;;15.30;99.90;;;;;;4975225;28;20543;-76
2023/07/30 00:16:08;;;;;;;13.13;4.30;;;15.30;99.90;;;;;;4983220;28;20042;-76
2023/07/30 00:18:34;;;;;;;11.32;4.13;;;15.30;99.90;;;;;;5009635;28;20038;-76
2023/07/30 00:20:59;;;;;;;8.63;4.28;;;15.30;99.90;;;;;;4994903;28;20046;-76
2023/07/30 00:23:25;;;;;;;11.23;4.45;;;15.30;99.90;;;;;;5010245;28;20038;-76
2023/07/30 00:25:51;;;;;;;13.18;4.82;;;15.30;99.90;;;;;;4975430;28;20081;-76
2023/07/30 00:28:16;;;;;;;10.15;4.00;;;15.30;99.90;;;;;;4963766;28;20088;-76
2023/07/30 00:30:42;;;;;;;16.05;4.90;;;15.30;99.90;;;;;;4977491;28;20056;-76
2023/07/30 00:33:08;;;;;;;13.15;4.15;;;15.30;99.90;;;;;;4994670;28;20591;-76
2023/07/30 00:35:33;;;;;;;7.50;4.32;;;15.30;99.90;;;;;;5007886;28;20579;-76
2023/07/30 00:37:59;;;;;;;13.10;4.47;;;15.20;99.90;;;;;;4975225;28;20490;-76
2023/07/30 00:40:25;;;;;;;16.45;5.32;;;15.30;99.90;;;;;;4975208;28;20065;-76
2023/07/30 00:42:50;;;;;;;13.80;4.18;;;15.30;99.90;;;;;;4958972;28;20054;-76
2023/07/30 00:45:16;;;;;;;7.75;4.55;;;15.30;99.90;;;;;;4949705;28;20065;-76
2023/07/30 00:47:42;;;;;;;9.00;4.30;;;15.20;99.90;;;;;;4978378;28;20087;-76
2023/07/30 00:50:10;;;;;;;13.20;4.57;;;15.20;99.90;;;;;;5010622;28;20049;-76
2023/07/30 00:52:36;;;;;;;8.77;3.35;;;15.20;99.90;;;;;;4978259;28;20041;-76
2023/07/30 00:55:03;;;;;;;13.05;4.40;;;15.10;99.90;;;;;;4994332;28;20077;-76
2023/07/30 00:57:29;;;;;;;11.15;4.18;;;15.10;99.90;;;;;;4977371;28;20038;-76
2023/07/30 00:59:57;;;;;;;11.27;3.90;;;15.00;99.90;;;;;;5000391;28;20042;-76
2023/07/30 01:02:22;;;;;;;11.40;4.90;;;15.00;99.90;;;;;;4994357;28;20045;-76
2023/07/30 01:04:49;;;;;;;9.05;4.50;;;15.00;99.90;;;;;;5026739;28;20587;-76
2023/07/30 01:07:15;;;;;;;13.75;4.28;;;15.00;99.90;;;;;;5010206;28;20143;-76
2023/07/30 01:09:41;;;;;;;12.10;4.75;;;14.90;99.90;;;;;;5010411;28;20135;-76
2023/07/30 01:12:08;;;;;;;12.50;4.22;;;14.90;99.90;;;;;;4981934;28;20105;-76
2023/07/30 01:14:37;;;;;;;14.43;4.55;;;14.90;99.90;;;;;;4988976;28;20470;-76
2023/07/30 01:17:04;;;;;;;13.98;4.43;;;14.80;99.90;;;;;;5010220;28;20042;-76
2023/07/30 01:19:30;;;;;;;13.50;4.93;;;14.80;99.90;;;;;;4993663;28;20042;-76
2023/07/30 01:21:56;;;;;;;12.27;3.85;;;14.80;99.90;;;;;;5006401;28;20474;-76
2023/07/30 01:24:22;;;;;;;11.45;4.35;;;14.70;99.90;;;;;;4975709;28;20048;-76
2023/07/30 01:27:11;;;;;;;7.35;3.40;;;14.70;99.90;;;;;;5007086;28;20096;-76
2023/07/30 01:29:46;;;;;;;12.75;4.00;;;14.70;99.90;;;;;;5022524;28;20050;-76
2023/07/30 01:32:13;;;;;;;10.48;4.22;;;14.60;99.90;;;;;;5009450;28;20037;-76
2023/07/30 01:34:41;;;;;;;14.98;4.57;;;14.60;99.90;;;;;;4991173;28;20041;-76
2023/07/30 01:37:10;;;;;;;9.95;3.53;;;14.60;99.90;;;;;;5009714;28;20038;-76
2023/07/30 01:39:38;;;;;;;8.75;3.60;;;14.60;99.90;;;;;;5009923;28;20054;-76
2023/07/30 01:42:04;;;;;;;17.65;4.72;;;14.60;99.90;;;;;;4992816;28;20532;-76
2023/07/30 01:44:29;;;;;;;11.77;3.90;;;14.60;99.90;;;;;;5009709;28;20053;-76
2023/07/30 01:46:55;;;;;;;11.25;3.70;;;14.50;99.90;;;;;;4974145;28;20034;-76
2023/07/30 01:49:21;;;;;;;22.80;4.50;;;14.50;99.90;;;;;;4957835;28;20533;-76
2023/07/30 01:51:47;;;;;;;13.20;4.60;;;14.50;99.90;;;;;;4977471;28;20037;-76
2023/07/30 01:54:12;;;;;;;8.20;3.35;;;14.50;99.90;;;;;;5009473;28;20042;-76
2023/07/30 01:56:39;;;;;;;7.68;3.05;;;14.50;99.90;;;;;;5009307;28;20064;-76
2023/07/30 01:59:04;;;;;;;10.77;4.07;;;14.50;99.90;;;;;;5009141;28;20037;-76
2023/07/30 02:01:30;;;;;;;14.13;4.53;;;14.50;99.90;;;;;;4993207;28;20641;-76
2023/07/30 02:03:56;;;;;;;9.57;4.10;;;14.40;99.90;;;;;;5009500;28;20049;-76
2023/07/30 02:06:22;;;;;;;15.77;4.28;;;14.40;99.90;;;;;;4993115;28;20053;-76
2023/07/30 02:08:47;;;;;;;13.05;3.60;;;14.40;99.90;;;;;;4993119;28;20125;-76
2023/07/30 02:11:13;;;;;;;10.07;3.38;;;14.40;99.90;;;;;;4996385;28;20081;-76
2023/07/30 02:13:39;;;;;;;10.00;4.85;;;14.40;99.90;;;;;;4974354;28;20037;-76
2023/07/30 02:16:04;;;;;;;8.85;3.58;;;14.40;99.90;;;;;;4992372;28;20113;-76
2023/07/30 02:18:30;;;;;;;13.27;3.40;;;14.40;99.90;;;;;;4960763;28;20065;-76
2023/07/30 02:20:56;;;;;;;8.15;3.38;;;14.40;99.90;;;;;;4976776;28;20048;-76
2023/07/30 02:23:21;;;;;;;10.15;4.10;;;14.40;99.90;;;;;;4993227;28;20050;-76
2023/07/30 02:25:47;;;;;;;6.45;3.03;;;14.30;99.90;;;;;;4992523;28;20129;-76
2023/07/30 02:28:13;;;;;;;14.13;3.40;;;14.30;99.90;;;;;;4976852;28;20064;-76
2023/07/30 02:30:38;;;;;;;13.35;3.53;;;14.30;99.90;;;;;;4992803;28;20092;-76
2023/07/30 02:33:04;;;;;;;14.93;4.00;;;14.30;99.90;;;;;;4982868;28;20077;-76
2023/07/30 02:35:30;;;;;;;15.63;3.75;;;14.30;99.90;;;;;;4990318;28;20125;-76
2023/07/30 02:37:55;;;;;;;11.13;3.30;;;14.30;99.90;;;;;;4982546;28;20042;-76
2023/07/30 02:40:21;;;;;;;10.60;3.65;;;14.30;99.90;;;;;;4992184;28;20133;-76
2023/07/30 02:42:47;;;;;;;8.73;3.40;;;14.30;99.90;;;;;;4993342;28;20057;-76
2023/07/30 02:45:12;;;;;;;10.88;3.45;;;14.20;99.90;;;;;;4993076;28;20053;-76
2023/07/30 02:47:38;;;;;;;7.00;3.05;;;14.20;99.90;;;;;;5003571;28;20050;-76
2023/07/30 02:50:05;;;;;;;12.45;4.75;;;14.20;99.90;;;;;;4973811;28;20046;-76
2023/07/30 02:52:31;;;;;;;8.20;3.03;;;14.20;99.90;;;;;;4962056;28;20164;-76
2023/07/30 02:54:57;;;;;;;10.50;3.35;;;14.10;99.90;;;;;;5009611;28;20627;-76
2023/07/30 02:57:23;;;;;;;15.63;4.13;;;14.10;99.90;;;;;;4976934;28;20079;-76
2023/07/30 02:59:48;;;;;;;9.80;3.05;;;14.10;99.90;;;;;;5008984;28;20056;-76
2023/07/30 03:02:14;;;;;;;11.18;3.50;;;14.00;99.90;;;;;;4991154;28;20056;-76
2023/07/30 03:04:40;;;;;;;9.98;3.25;;;14.00;99.90;;;;;;4973552;28;20038;-76
2023/07/30 03:07:08;;;;;;;8.73;3.22;;;14.00;99.90;;;;;;4981841;28;20045;-76
2023/07/30 03:09:33;;;;;;;12.82;4.20;;;14.00;99.90;;;;;;5009288;28;20108;-76
2023/07/30 03:11:59;;;;;;;15.85;3.38;;;14.00;99.90;;;;;;4993240;28;20080;-76
2023/07/30 03:14:25;;;;;;;8.75;2.80;;;14.00;99.90;;;;;;4993360;28;20041;-76
2023/07/30 03:16:51;;;;;;;9.13;3.60;;;14.00;99.90;;;;;;5009315;28;20042;-76
2023/07/30 03:19:16;;;;;;;12.43;3.67;;;14.00;99.90;;;;;;4993238;28;20068;-76
2023/07/30 03:21:42;;;;;;;8.77;3.25;;;13.90;99.90;;;;;;4980280;28;20053;-76
2023/07/30 03:24:08;;;;;;;14.18;3.78;;;14.00;99.90;;;;;;4976888;28;20046;-76
2023/07/30 03:26:33;;;;;;;8.40;3.13;;;13.90;99.90;;;;;;4976955;28;20046;-76
2023/07/30 03:28:59;;;;;;;9.98;3.60;;;13.90;99.90;;;;;;4990129;28;20042;-76
2023/07/30 03:31:25;;;;;;;10.98;3.40;;;13.90;99.90;;;;;;4980458;28;20193;-76
2023/07/30 03:33:51;;;;;;;7.47;3.95;;;13.90;99.90;;;;;;4980516;28;20042;-76
2023/07/30 03:36:16;;;;;;;11.48;4.57;;;13.90;99.90;;;;;;5012357;28;20121;-76
2023/07/30 03:38:42;;;;;;;7.30;3.50;;;13.90;99.90;;;;;;4995753;28;20034;-76
2023/07/30 03:41:09;;;;;;;8.88;3.72;;;13.90;99.90;;;;;;4996173;28;20104;-76
2023/07/30 03:43:35;;;;;;;10.80;3.70;;;13.90;99.90;;;;;;5012748;28;20111;-76
2023/07/30 03:46:01;;;;;;;8.45;3.70;;;13.90;99.90;;;;;;5012479;28;20547;-76
2023/07/30 03:48:27;;;;;;;12.80;4.22;;;13.90;99.90;;;;;;5005655;28;20038;-76
2023/07/30 03:50:56;;;;;;;11.10;4.28;;;13.90;99.90;;;;;;5006870;28;20037;-76
2023/07/30 03:53:22;;;;;;;11.75;4.43;;;13.80;99.90;;;;;;4998398;28;20060;-76
2023/07/30 03:55:48;;;;;;;12.05;4.15;;;13.80;99.90;;;;;;5011923;28;20534;-76
2023/07/30 03:58:14;;;;;;;11.55;4.50;;;13.80;99.90;;;;;;5007330;28;20619;-76
2023/07/30 04:00:40;;;;;;;11.57;4.43;;;13.80;99.90;;;;;;4975570;28;20080;-76
2023/07/30 04:03:06;;;;;;;10.88;4.47;;;13.90;99.90;;;;;;4994324;28;20353;-76
2023/07/30 04:05:32;;;;;;;12.77;4.82;;;13.90;99.90;;;;;;4994452;28;20053;-76
2023/07/30 04:07:57;;;;;;;13.43;4.78;;;13.90;99.90;;;;;;4994775;28;20038;-76
2023/07/30 04:10:23;;;;;;;12.35;4.90;;;13.90;99.90;;;;;;4994401;28;20045;-76
2023/07/30 04:12:49;;;;;;;9.68;4.57;;;13.90;99.90;;;;;;4978310;28;20038;-76
2023/07/30 04:15:16;;;;;;;9.43;4.40;;;13.90;99.90;;;;;;4994936;28;20122;-76
2023/07/30 04:17:41;;;;;;;13.35;4.57;;;13.90;99.90;;;;;;5008659;28;20038;-76
2023/07/30 04:20:09;;;;;;;9.65;4.40;;;13.90;99.90;;;;;;5010572;28;20038;-76
2023/07/30 04:22:35;;;;;;;16.25;5.03;;;13.90;99.90;;;;;;4979001;28;20129;-76
2023/07/30 04:25:01;;;;;;;14.25;5.20;;;13.90;99.90;;;;;;5024342;28;20558;-76
2023/07/30 04:27:27;;;;;;;9.98;4.68;;;14.00;99.90;;;;;;4991889;28;20073;-76
2023/07/30 04:29:52;;;;;;;12.35;4.82;;;14.00;99.90;;;;;;4986253;28;20462;-76
2023/07/30 04:32:18;;;;;;;11.85;4.50;;;14.00;99.90;;;;;;4994190;28;20042;-76
2023/07/30 04:34:44;;;;;;;17.02;4.78;;;14.10;99.90;;;;;;4964465;28;20491;-76
2023/07/30 04:37:09;;;;;;;9.73;4.13;;;14.10;99.90;;;;;;5010824;28;20100;-76
2023/07/30 04:39:36;;;;;;;17.80;5.03;;;14.10;99.90;;;;;;4984310;28;20133;-76
2023/07/30 04:42:02;;;;;;;13.40;4.50;;;14.10;99.90;;;;;;4978417;28;20077;-76
2023/07/30 04:44:28;;;;;;;12.13;4.53;;;14.10;99.90;;;;;;4994791;28;20495;-76
2023/07/30 04:46:53;;;;;;;13.80;4.32;;;14.10;99.90;;;;;;5010586;28;20034;-77
2023/07/30 04:49:19;;;;;;;14.15;4.78;;;14.20;99.90;;;;;;4993750;28;20121;-76
2023/07/30 04:51:45;;;;;;;13.45;4.63;;;14.20;99.90;;;;;;4978279;28;20521;-76
2023/07/30 04:54:11;;;;;;;15.23;4.80;;;14.20;99.90;;;;;;5009871;28;20034;-76
2023/07/30 04:56:37;;;;;;;11.32;4.43;;;14.30;99.90;;;;;;4994396;28;20041;-76
2023/07/30 04:59:03;;;;;;;23.20;4.82;;;14.30;99.90;;;;;;5009275;28;20187;-76
2023/07/30 05:01:29;;;;;;;14.40;5.05;;;14.30;99.90;;;;;;5009168;28;20581;-76
2023/07/30 05:03:55;;;;;;;13.07;4.78;;;14.30;99.90;;;;;;5009600;28;20054;-75
2023/07/30 05:06:21;;;;;;;13.15;4.32;;;14.40;99.90;;;;;;5008761;28;20071;-76
2023/07/30 05:08:46;;;;;;;11.98;4.53;;;14.40;99.90;;;;;;4993368;28;20487;-76
2023/07/30 05:11:12;;;;;;;12.65;3.83;;;14.50;99.90;;;;;;4990801;28;20052;-76
2023/07/30 05:13:38;;;;;;;14.95;4.68;;;14.50;99.90;;;;;;4990628;28;20046;-76
2023/07/30 05:16:03;;;;;;;12.38;4.40;;;14.50;99.90;;;;;;4991915;28;20037;-76
2023/07/30 05:18:29;;;;;;;16.30;4.43;;;14.60;99.90;;;;;;5010123;28;20069;-76
2023/07/30 05:20:55;;;;;;;13.70;4.80;;;14.60;99.90;;;;;;4982118;28;20070;-76
2023/07/30 05:23:21;;;;;;;13.63;5.32;;;14.60;99.90;;;;;;4989385;28;20045;-76
2023/07/30 05:25:46;;;;;;;13.25;4.30;;;14.70;99.90;;;;;;4993833;28;20080;-76
2023/07/30 05:28:12;;;;;;;11.77;4.05;;;14.70;99.90;;;;;;5009959;28;20056;-76
2023/07/30 05:30:38;;;;;;;13.05;4.55;;;14.80;99.90;;;;;;4993838;28;20033;-76
2023/07/30 05:33:04;;;;;;;10.77;4.88;;;14.80;99.90;;;;;;4993624;28;20442;-76
2023/07/30 05:35:30;;;;;;;11.95;4.20;;;14.90;99.90;;;;;;5007987;28;20049;-76
2023/07/30 05:37:56;;;;;;;10.43;4.55;;;14.90;99.90;;;;;;4992945;28;20300;-76
2023/07/30 05:40:22;;;;;;;15.60;4.85;;;14.90;99.90;;;;;;4993437;28;20125;-76
2023/07/30 05:42:47;;;;;;;14.13;4.88;;;14.90;99.90;;;;;;5009899;28;20053;-76
2023/07/30 05:45:13;;;;;;;13.15;4.35;;;14.90;99.90;;;;;;5009526;28;20134;-76
2023/07/30 05:47:39;;;;;;;11.57;4.70;;;15.00;99.90;;;;;;4993395;28;20038;-76
2023/07/30 05:50:06;;;;;;;18.15;5.10;;;15.00;99.90;;;;;;5005330;28;20072;-76
2023/07/30 05:52:32;;;;;;;11.10;4.43;;;15.00;99.90;;;;;;4981852;28;20483;-76
2023/07/30 05:54:58;;;;;;;16.05;4.78;;;15.10;99.90;;;;;;4975374;28;20026;-76
2023/07/30 05:57:24;;;;;;;12.55;4.72;;;15.10;99.90;;;;;;4990359;28;20038;-76
2023/07/30 05:59:49;;;;;;;9.85;4.13;;;15.10;99.90;;;;;;5006483;28;20038;-77
2023/07/30 06:02:15;;;;;;;18.42;5.68;;;15.10;99.90;;;;;;4973993;28;20492;-76
2023/07/30 06:04:41;;;;;;;19.13;5.88;;;15.10;99.90;;;;;;4999807;28;20118;-76
2023/07/30 06:07:07;;;;;;;13.85;5.03;;;15.20;99.90;;;;;;4993345;28;20046;-76
2023/07/30 06:09:33;;;;;;;12.57;5.03;;;15.20;99.90;;;;;;4976602;28;20653;-77
2023/07/30 06:11:58;;;;;;;20.20;6.25;;;15.20;99.90;;;;;;4973837;28;20395;-77
2023/07/30 06:14:25;;;;;;;14.25;5.43;;;15.30;99.90;;;;;;5008735;28;20671;-76
2023/07/30 06:16:52;;;;;;;17.02;4.70;;;15.30;99.90;;;;;;5008688;28;20029;-77
2023/07/30 06:19:18;;;;;;;13.90;4.70;;;15.40;99.90;;;;;;4992419;28;20041;-76
2023/07/30 06:21:43;;;;;;;15.60;5.15;;;15.40;99.90;;;;;;5004565;28;20068;-77
2023/07/30 06:24:09;;;;;;;19.42;5.32;;;15.50;99.90;;;;;;5006272;28;20057;-77
2023/07/30 06:26:35;;;;;;;15.20;5.93;;;15.60;99.90;;;;;;4988769;28;20131;-77
2023/07/30 06:29:01;;;;;;;13.20;4.95;;;15.60;99.90;;;;;;5009451;28;20077;-77
2023/07/30 06:31:27;;;;;;;15.95;4.85;;;15.70;99.90;;;;;;4978934;28;20046;-77
2023/07/30 06:33:52;;;;;;;21.92;5.22;;;15.80;99.90;;;;;;4990072;28;20042;-77
2023/07/30 06:36:18;;;;;;;13.93;5.70;;;15.80;99.90;;;;;;5000964;28;20037;-77
2023/07/30 06:38:44;;;;;;;11.27;4.35;;;15.90;99.90;;;;;;4992820;28;20042;-78
2023/07/30 06:41:09;;;;;;;17.27;5.10;;;16.00;99.90;;;;;;5009179;28;20054;-77
2023/07/30 06:43:35;;;;;;;18.23;4.90;;;16.10;99.90;;;;;;4976752;28;20124;-77
2023/07/30 06:46:01;;;;;;;17.13;5.18;;;16.10;99.90;;;;;;4988267;28;20034;-77
2023/07/30 06:48:26;;;;;;;14.25;4.60;;;16.20;99.90;;;;;;4973338;28;20491;-77
2023/07/30 06:50:52;;;;;;;22.70;5.22;;;16.20;99.90;;;;;;4988778;28;20049;-77
2023/07/30 06:53:18;;;;;;;18.75;5.35;;;16.30;99.90;;;;;;5009192;28;20089;-77
2023/07/30 06:55:44;;;;;;;16.35;4.68;;;16.30;99.90;;;;;;5008243;28;20026;-77
2023/07/30 06:58:10;;;;;;;15.70;5.53;;;16.30;99.90;;;;;;4994239;28;20125;-77
2023/07/30 07:00:37;;;;;;;17.80;5.50;;;16.40;99.90;;;;;;5010198;28;20037;-77
2023/07/30 07:03:03;;;;;;;16.63;4.82;;;16.40;99.90;;;;;;4993132;28;20046;-77
2023/07/30 07:05:29;;;;;;;14.95;4.90;;;16.40;99.90;;;;;;4986955;28;20514;-77
2023/07/30 07:07:55;;;;;;;14.15;5.00;;;16.50;99.90;;;;;;4995669;28;20037;-77
2023/07/30 07:10:21;;;;;;;20.75;4.93;;;16.60;99.90;;;;;;5012551;28;20045;-77
2023/07/30 07:12:47;;;;;;;13.68;4.90;;;16.60;99.90;;;;;;5012137;28;20037;-77
2023/07/30 07:15:13;;;;;;;13.68;4.82;;;16.60;99.90;;;;;;5012938;28;20100;-77
2023/07/30 07:17:39;;;;;;;13.00;4.80;;;16.70;99.90;;;;;;4978968;28;20039;-77
2023/07/30 07:20:07;;;;;;;18.00;5.63;;;16.80;99.90;;;;;;4978336;28;20041;-76
2023/07/30 07:22:33;;;;;;;14.52;5.57;;;16.90;99.90;;;;;;4992889;28;20065;-77
2023/07/30 07:24:58;;;;;;;18.58;5.15;;;17.10;99.90;;;;;;5012569;28;20042;-77
2023/07/30 07:27:24;;;;;;;14.45;4.45;;;17.20;99.90;;;;;;4981166;28;20044;-77
2023/07/30 07:29:51;;;;;;;14.25;4.65;;;17.20;99.90;;;;;;4984106;28;20072;-77
2023/07/30 07:32:17;;;;;;;15.50;5.13;;;17.10;99.90;;;;;;5002380;28;20093;-77
2023/07/30 07:34:49;;;;;;;13.75;4.03;;;17.20;99.90;;;;;;4992986;28;20042;-77
2023/07/30 07:37:16;;;;;;;13.43;4.80;;;17.20;99.90;;;;;;4972530;28;20041;-77
2023/07/30 07:39:43;;;;;;;17.50;4.10;;;17.10;99.90;;;;;;4995137;28;20058;-80
2023/07/30 07:42:09;;;;;;;13.77;4.43;;;17.20;99.90;;;;;;4963903;28;20041;-77
2023/07/30 07:44:35;;;;;;;16.80;4.25;;;17.20;99.90;;;;;;4979515;28;20467;-77
2023/07/30 07:47:00;;;;;;;16.33;5.10;;;17.10;99.90;;;;;;4979635;28;20068;-78
2023/07/30 07:49:26;;;;;;;16.25;4.30;;;17.10;99.90;;;;;;4979798;28;20534;-78
2023/07/30 07:51:52;;;;;;;16.27;5.05;;;17.10;99.90;;;;;;5010997;28;20121;-77
2023/07/30 07:54:17;;;;;;;15.05;5.90;;;17.10;99.90;;;;;;5011027;28;20073;-77
2023/07/30 07:56:43;;;;;;;14.80;4.88;;;17.10;99.90;;;;;;4992252;28;20050;-77
2023/07/30 07:59:09;;;;;;;11.55;4.40;;;17.30;99.90;;;;;;4992580;28;20408;-77
2023/07/30 08:01:34;;;;;;;11.60;4.80;;;17.40;99.90;;;;;;4962293;28;20060;-77
2023/07/30 08:04:00;;;;;;;20.13;5.43;;;17.70;99.90;;;;;;4995501;28;20100;-78
2023/07/30 08:06:26;;;;;;;9.90;4.20;;;17.80;99.90;;;;;;4993984;28;20034;-77
2023/07/30 08:08:51;;;;;;;12.35;4.25;;;18.00;99.90;;;;;;4978646;28;20104;-77
2023/07/30 08:11:17;;;;;;;18.42;4.60;;;18.10;99.90;;;;;;4995612;28;20096;-77
2023/07/30 08:13:43;;;;;;;11.82;4.18;;;18.10;99.90;;;;;;4994941;28;20045;-77
2023/07/30 08:16:08;;;;;;;17.75;5.60;;;18.20;99.90;;;;;;5027746;28;20128;-77
2023/07/30 08:18:34;;;;;;;11.00;5.10;;;18.20;99.90;;;;;;4977738;28;20097;-77
2023/07/30 08:21:00;;;;;;;12.90;4.93;;;18.30;99.90;;;;;;5004609;28;20410;-78
2023/07/30 08:23:26;;;;;;;13.43;3.95;;;18.30;99.90;;;;;;5006809;28;20038;-78
2023/07/30 08:25:52;;;;;;;13.98;3.78;;;18.40;99.90;;;;;;4990561;28;20048;-77
2023/07/30 08:28:17;;;;;;;11.63;3.75;;;18.40;99.90;;;;;;4993316;28;20046;-77
2023/07/30 08:30:43;;;;;;;15.40;4.65;;;18.40;99.90;;;;;;5011198;28;20068;-77
2023/07/30 08:33:09;;;;;;;12.55;3.63;;;18.50;99.90;;;;;;5010828;28;20411;-78
2023/07/30 08:35:34;;;;;;;8.90;4.07;;;18.70;99.90;;;;;;4994377;28;20038;-78
2023/07/30 08:38:00;;;;;;;10.98;4.13;;;18.70;99.90;;;;;;4985740;28;20121;-77
2023/07/30 08:40:26;;;;;;;13.20;3.70;;;18.60;99.90;;;;;;4994574;28;20054;-78
2023/07/30 08:42:53;;;;;;;10.63;3.83;;;18.50;99.90;;;;;;4993627;28;20120;-77
2023/07/30 08:45:19;;;;;;;11.32;3.63;;;18.60;99.90;;;;;;4994797;28;20076;-77
2023/07/30 08:47:47;;;;;;;14.88;4.22;;;18.80;99.90;;;;;;4979361;28;20045;-77
2023/07/30 08:50:13;;;;;;;12.88;4.10;;;19.00;99.90;;;;;;5009755;28;20037;-78
2023/07/30 08:52:39;;;;;;;9.55;3.95;;;19.10;99.90;;;;;;4975129;28;20096;-77
2023/07/30 08:55:05;;;;;;;10.07;3.53;;;19.20;99.90;;;;;;4959039;28;20038;-77
2023/07/30 08:57:32;;;;;;;13.85;4.40;;;19.10;99.90;;;;;;4976347;28;20451;-77
2023/07/30 09:00:05;;;;;;;17.08;4.00;;;19.20;99.90;;;;;;4990726;28;20038;-77
2023/07/30 09:02:47;;;;;;;8.68;3.63;;;19.20;99.90;;;;;;4974558;28;20041;-77
2023/07/30 09:05:13;;;;;;;8.10;3.60;;;19.20;99.90;;;;;;5009162;28;20037;-77
2023/07/30 09:07:39;;;;;;;8.73;3.40;;;19.20;99.90;;;;;;4993963;28;20049;-78
2023/07/30 09:10:05;;;;;;;11.27;3.45;;;19.50;99.90;;;;;;5010450;28;20148;-78
2023/07/30 09:12:33;;;;;;;13.23;3.75;;;19.70;99.90;;;;;;5009352;28;20081;-77
2023/07/30 09:14:58;;;;;;;12.70;3.60;;;19.70;99.90;;;;;;4994344;28;20044;-77
2023/07/30 09:17:25;;;;;;;13.07;4.40;;;19.50;99.90;;;;;;5010119;28;20577;-77
2023/07/30 09:19:52;;;;;;;10.90;4.00;;;19.30;99.90;;;;;;5003292;28;20049;-77
2023/07/30 09:22:38;;;;;;;14.10;5.07;;;19.10;99.90;;;;;;4995637;28;20050;-77
2023/07/30 09:25:05;;;;;;;11.65;4.65;;;19.00;99.90;;;;;;5004478;28;20046;-77
2023/07/30 09:27:32;;;;;;;15.63;4.72;;;18.90;99.90;;;;;;4990571;28;20045;-76
2023/07/30 09:30:00;;;;;;;10.43;4.80;;;18.90;99.90;;;;;;5004929;28;20037;-76
2023/07/30 09:32:31;;;;;;;11.63;4.40;;;18.80;99.90;;;;;;4977590;28;20068;-77
2023/07/30 09:35:15;;;;;;;12.90;4.00;;;18.80;99.90;;;;;;4993201;28;20052;-77
2023/07/30 09:37:41;;;;;;;7.60;4.20;;;18.90;99.90;;;;;;4993827;28;20038;-77
2023/07/30 09:40:15;;;;;;;11.30;4.18;;;18.90;99.90;;;;;;4989976;28;20053;-77
2023/07/30 09:42:48;;;;;;;12.73;4.47;;;19.00;99.90;;;;;;4992430;28;20041;-77
2023/07/30 09:45:21;;;;;;;11.75;4.05;;;19.10;99.90;;;;;;4974101;28;20513;-78
2023/07/30 09:47:48;;;;;;;12.48;4.25;;;19.10;99.90;;;;;;4973806;28;20053;-77
2023/07/30 09:50:15;;;;;;;11.18;4.18;;;19.10;99.90;;;;;;5008657;28;20119;-77
2023/07/30 09:52:43;;;;;;;13.38;4.55;;;18.90;99.90;;;;;;4993446;28;20117;-77
2023/07/30 09:55:09;;;;;;;12.07;4.07;;;18.80;99.90;;;;;;5009845;28;20123;-77
2023/07/30 09:57:35;;;;;;;7.82;4.07;;;18.70;99.90;;;;;;5009967;28;20038;-77
2023/07/30 10:00:03;;;;;;;8.75;4.47;;;18.50;99.90;;;;;;4992964;28;20127;-77
2023/07/30 10:02:32;;;;;;;8.88;4.18;;;18.40;99.90;;;;;;4974292;28;20050;-77
2023/07/30 10:04:59;;;;;;;9.90;4.03;;;18.30;99.90;;;;;;5006542;28;20042;-77
2023/07/30 10:07:27;;;;;;;9.35;4.38;;;18.20;99.90;;;;;;4977390;28;20045;-77
2023/07/30 10:09:58;;;;;;;12.90;5.07;;;18.10;99.90;;;;;;4980440;28;20053;-77
2023/07/30 10:12:28;;;;;;;11.48;5.03;;;17.90;99.90;;;;;;4998417;28;20045;-77
2023/07/30 10:14:54;;;;;;;11.57;5.22;;;17.70;99.90;;;;;;4989849;28;20050;-78
2023/07/30 10:17:20;;;;;;;18.20;5.25;;;17.60;99.90;;;;;;4973783;28;20049;-78
2023/07/30 10:19:50;;;;;;;8.38;2.50;;;17.40;99.90;;;;;;4969895;28;20037;-79
2023/07/30 10:22:19;;;;;;;7.28;2.50;;;16.70;99.90;;;;;;4992720;28;20064;-78
2023/07/30 10:24:58;;;;;;;7.78;2.45;;;16.30;99.90;;;;;;4989820;28;20038;-78
2023/07/30 10:27:25;;;;;;;7.88;2.47;;;15.80;99.90;;;;;;4989644;28;20105;-78
2023/07/30 10:30:08;;;;;;;8.02;2.95;;;15.50;99.90;;;;;;4980804;28;20111;-78
2023/07/30 10:32:55;;;;;;;7.50;2.95;;;15.40;99.90;;;;;;4976637;28;20468;-77
2023/07/30 10:35:39;;;;;;;5.95;2.13;;;15.40;99.90;;;;;;5009771;28;20047;-77
2023/07/30 10:38:28;;;;;;;7.95;2.35;;;15.40;99.90;;;;;;4977132;28;20045;-77
2023/07/30 10:41:09;;;;;;;8.82;3.67;;;15.50;99.90;;;;;;5026179;28;20228;-76
2023/07/30 10:43:48;;;;;;;8.13;2.97;;;15.40;99.90;;;;;;5012297;28;20046;-78
2023/07/30 10:46:16;;;;;;;5.55;2.20;;;15.30;99.90;;;;;;5013285;28;20060;-78
2023/07/30 10:48:44;;;;;;;5.97;3.67;;;15.30;99.90;;;;;;4992773;28;20035;-77
2023/07/30 10:51:15;;;;;;;7.55;3.25;;;15.20;99.90;;;;;;5012750;28;20137;-78
2023/07/30 10:53:46;;;;;;;6.85;2.53;;;15.10;99.90;;;;;;5012725;28;20056;-78
2023/07/30 10:56:13;;;;;;;5.95;3.08;;;14.90;99.90;;;;;;4993575;28;20034;-77
2023/07/30 10:58:39;;;;;;;8.90;2.80;;;14.80;99.90;;;;;;4976957;28;20045;-76
2023/07/30 11:01:06;;;;;;;10.45;3.28;;;14.70;99.90;;;;;;5008035;28;20038;-76
2023/07/30 11:03:32;;;;;;;9.55;3.00;;;14.60;99.90;;;;;;5012971;28;20045;-76
2023/07/30 11:05:59;;;;;;;10.20;3.50;;;14.60;99.90;;;;;;4993115;28;20052;-77
2023/07/30 11:08:42;;;;;;;8.73;3.00;;;14.70;99.90;;;;;;4961202;28;20073;-77
2023/07/30 11:11:10;;;;;;;7.60;4.00;;;14.70;99.90;;;;;;4990901;28;20034;-77
2023/07/30 11:13:45;;;;;;;7.70;3.63;;;15.10;99.90;;;;;;4976689;28;20042;-77
2023/07/30 11:16:11;;;;;;;9.23;4.43;;;15.60;99.90;;;;;;5003404;28;20072;-77
2023/07/30 11:18:38;;;;;;;12.93;4.32;;;16.00;99.90;;;;;;4992876;28;20077;-76
2023/07/30 11:21:13;;;;;;;9.88;5.20;;;16.40;99.90;;;;;;5008444;28;20050;-76
2023/07/30 11:23:41;;;;;;;15.93;4.22;;;16.80;99.90;;;;;;5012338;28;20050;-76
2023/07/30 11:26:09;;;;;;;7.03;3.70;;;17.20;99.90;;;;;;4996819;28;20069;-76
2023/07/30 11:28:39;;;;;;;12.93;4.10;;;17.50;99.90;;;;;;4976714;28;20034;-76
2023/07/30 11:31:12;;;;;;;8.48;4.22;;;17.80;99.90;;;;;;4989293;28;20121;-76
2023/07/30 11:33:43;;;;;;;11.35;3.20;;;18.10;99.90;;;;;;4995844;28;20034;-76
2023/07/30 11:36:18;;;;;;;7.75;3.22;;;18.30;99.90;;;;;;4993934;28;20044;-76
2023/07/30 11:38:46;;;;;;;8.73;3.00;;;18.60;99.90;;;;;;5012366;28;20100;-75
2023/07/30 11:41:13;;;;;;;6.22;2.40;;;18.70;99.90;;;;;;5008409;28;20370;-75
2023/07/30 11:43:41;;;;;;;11.02;2.70;;;18.90;99.90;;;;;;4991654;28;20054;-76
2023/07/30 11:46:16;;;;;;;6.93;2.00;;;19.00;99.90;;;;;;5016735;28;20081;-75
2023/07/30 11:48:46;;;;;;;6.15;2.22;;;19.10;99.90;;;;;;5012031;28;20060;-76
2023/07/30 11:51:22;;;;;;;5.43;2.30;;;19.10;99.90;;;;;;5008000;28;20042;-75
2023/07/30 11:53:50;;;;;;;8.52;2.35;;;19.00;99.90;;;;;;4992459;28;20043;-75
2023/07/30 11:56:24;;;;;;;7.35;2.72;;;18.90;99.90;;;;;;5013127;28;20113;-75
2023/07/30 11:58:53;;;;;;;4.95;2.25;;;18.80;99.90;;;;;;4993883;28;20100;-75
2023/07/30 12:01:19;;;;;;;8.13;2.40;;;18.80;99.90;;;;;;4991508;28;20038;-75
2023/07/30 12:03:45;;;;;;;9.68;2.72;;;18.70;99.90;;;;;;4975847;28;20125;-75
2023/07/30 12:06:12;;;;;;;12.27;2.42;;;18.70;99.90;;;;;;4973325;28;20104;-75
2023/07/30 12:08:38;;;;;;;9.38;3.05;;;18.70;99.90;;;;;;4995512;28;20260;-74
2023/07/30 12:11:06;;;;;;;8.15;2.65;;;18.90;99.90;;;;;;5010848;28;20046;-75
2023/07/30 12:13:32;;;;;;;9.13;2.42;;;19.20;99.90;;;;;;5010855;28;20052;-75
2023/07/30 12:15:59;;;;;;;6.95;2.33;;;19.50;99.90;;;;;;4994302;28;20073;-75
2023/07/30 12:18:26;;;;;;;6.45;1.92;;;19.50;99.90;;;;;;5011499;28;20045;-75
2023/07/30 12:20:53;;;;;;;5.60;1.75;;;19.50;99.90;;;;;;5002944;28;20153;-75
2023/07/30 12:23:20;;;;;;;8.52;2.42;;;19.60;99.90;;;;;;4991793;28;20058;-75
2023/07/30 12:25:46;;;;;;;4.95;2.00;;;19.80;99.90;;;;;;4987206;28;20065;-75
2023/07/30 12:28:12;;;;;;;7.20;2.25;;;19.90;99.90;;;;;;5011123;28;20041;-75
2023/07/30 12:30:38;;;;;;;8.15;2.60;;;19.90;99.90;;;;;;5009887;28;20491;-75
2023/07/30 12:33:04;;;;;;;7.60;2.00;;;19.80;99.90;;;;;;5011117;28;20091;-75
2023/07/30 12:35:33;;;;;;;4.50;1.73;;;19.70;99.90;;;;;;4978044;28;20391;-75
2023/07/30 12:38:00;;;;;;;7.18;1.95;;;19.40;99.90;;;;;;5010955;28;20084;-75
2023/07/30 12:40:26;;;;;;;4.72;2.22;;;19.10;99.90;;;;;;4991512;28;20507;-75